Hauptseite
METAR-TAF:

METAR-TAF

Flughäfen :

City-Airport Mannheim

Mannheim, Deutschland

Breite: 49-28-21N, Länge: 008-30-56E, Höhe: 100 m

Beobachtung

Neuester Wetterbericht von vor 12 Minuten, um 14:50 UTC
Wind 4 kt aus Nord/Nordwest, variierte zwischen West/Nordwest und Ost
Temperatur 9°C
Luftfeuchtigkeit 53%
Luftdruck 1030 hPa
Sichtweite 10 km oder mehr
Geschlossene Wolkendecke in der Höhe von 4100 ft

METAR: EDFM 261450Z 34004KT 290V080 9999 OVC041 09/M00 Q1030

Zeit: 16:02 (15:02 UTC)

Prognose

Neuester Wetterbericht von vor 1 Stunde und 2 Minuten, um 14:00 UTC
Gültige Prognose vom 26 um 15 UTC bis 26 um 21 UTC
Wind 6 kt aus Nord/Nordwest
Sichtweite 10 km oder mehr
Durchbrochene Bewölkung in der Höhe von 3500 ft

TAF: EDFM 261400Z 2615/2621 33006KT 9999 BKN035

Wetterbeobachtungen und Prognosen von mehr als 4000 Flughäfen (METAR und TAF Bericht).

Die verfügbaren Stationen werden durch gelbe und rote Markierungen auf der Karte dargestellt.

Führen Sie die Maus auf sie, um den Namen der Station zu sehen.

Darauf klicken, um die Beobachtung von Wetterbeobachtungen und Prognosen zu sehen.

Um die Karte zu ändern : klicken Sie auf den grünen Tasten mit einem schwarzen Kreuz Zum Vergrößern, auf den grünen Button mit einem Gedankenstrich zu verkleinern, oder auf die grünen Pfeile für benachbarte Karten.


METAR-TAF: